Time;durP1;ratioP1;P1;durP2;ratioP2;P2;SDS_P1;SDS_P2;PMS_P1;PMS_P2;Temp;Humidity;BMP_temperature;BMP_pressure;BME280_temperature;BME280_humidity;BME280_pressure;Samples;Min_cycle;Max_cycle;Signal;HPM_P1;HPM_P2
2021/06/05 00:00:43;;;;;;;8.30;5.40;;;12.00;99.90;;;10.77;90.19;101891.50;4991397;28;24950;-77
2021/06/05 00:03:11;;;;;;;14.35;5.45;;;12.00;99.90;;;10.82;90.96;101886.09;5012525;28;20067;-78
2021/06/05 00:05:58;;;;;;;19.25;5.65;;;12.00;99.90;;;10.86;90.91;101887.72;4995702;28;20448;-77
2021/06/05 00:08:29;;;;;;;7.40;4.68;;;12.10;99.90;;;10.88;90.12;101886.81;4987946;28;20567;-77
2021/06/05 00:11:04;;;;;;;8.52;5.10;;;12.10;99.90;;;10.86;90.61;101864.03;4970948;28;20519;-77
2021/06/05 00:13:38;;;;;;;9.95;4.78;;;12.10;99.90;;;10.86;90.33;101877.19;4973189;28;20542;-77
2021/06/05 00:16:09;;;;;;;7.18;5.00;;;12.10;99.90;;;10.86;91.44;101878.09;5004681;28;20177;-78
2021/06/05 00:18:38;;;;;;;6.53;4.07;;;12.00;99.90;;;10.70;90.25;101879.41;4969362;28;20079;-78
2021/06/05 00:21:05;;;;;;;8.50;5.18;;;11.90;99.90;;;10.57;90.65;101873.63;4965224;28;20577;-77
2021/06/05 00:23:32;;;;;;;7.88;5.18;;;11.90;99.90;;;10.61;91.73;101877.06;5002606;28;20069;-77
2021/06/05 00:25:59;;;;;;;9.07;4.95;;;11.70;99.90;;;10.34;90.51;101882.16;4965540;28;21386;-77
2021/06/05 00:28:26;;;;;;;6.70;4.40;;;11.70;99.90;;;10.40;91.99;101878.50;4975414;28;20128;-77
2021/06/05 00:30:52;;;;;;;6.97;4.70;;;11.70;99.90;;;10.39;91.48;101879.44;4966524;28;20604;-77
2021/06/05 00:33:19;;;;;;;9.10;4.90;;;11.60;99.90;;;10.26;91.15;101873.59;4985629;28;20056;-77
2021/06/05 00:35:45;;;;;;;7.72;5.00;;;11.70;99.90;;;10.46;93.41;101863.41;4981608;28;21571;-77
2021/06/05 00:38:11;;;;;;;11.65;5.78;;;11.70;99.90;;;10.33;92.01;101864.66;4974186;28;20069;-77
2021/06/05 00:40:45;;;;;;;7.53;4.53;;;11.60;99.90;;;10.29;91.19;101862.13;4977978;28;20064;-77
2021/06/05 00:43:15;;;;;;;8.65;5.05;;;11.70;99.90;;;10.37;92.42;101858.41;4991666;28;20069;-77
2021/06/05 00:45:45;;;;;;;8.20;4.90;;;11.60;99.90;;;10.29;92.26;101865.66;4984520;28;20074;-77
2021/06/05 00:48:12;;;;;;;10.07;5.10;;;11.60;99.90;;;10.32;91.52;101862.91;4995519;28;20060;-77
2021/06/05 00:50:42;;;;;;;7.75;5.18;;;11.60;99.90;;;10.34;92.23;101854.97;4996753;28;20056;-77
2021/06/05 00:53:14;;;;;;;10.82;4.88;;;11.70;99.90;;;10.40;92.34;101854.81;5003001;28;20077;-77
2021/06/05 00:55:46;;;;;;;8.38;5.10;;;11.70;99.90;;;10.40;92.05;101862.72;5002463;28;20083;-77
2021/06/05 00:58:13;;;;;;;7.88;5.40;;;11.50;99.90;;;10.39;92.86;101861.88;5016419;28;20075;-77
2021/06/05 01:01:11;;;;;;;7.75;5.00;;;11.70;99.90;;;10.43;92.52;101854.72;4997725;28;20158;-77
2021/06/05 01:03:38;;;;;;;10.82;5.35;;;11.70;99.90;;;10.45;92.90;101861.69;5017426;28;20414;-77
2021/06/05 01:06:17;;;;;;;10.00;5.57;;;11.70;99.90;;;10.44;93.34;101867.00;4988605;28;20107;-77
2021/06/05 01:09:12;;;;;;;10.20;5.43;;;11.70;99.90;;;10.44;92.83;101857.31;4984541;28;20067;-77
2021/06/05 01:11:42;;;;;;;11.93;5.55;;;11.70;99.90;;;10.49;93.17;101856.31;4987884;28;20060;-77
2021/06/05 01:14:37;;;;;;;9.07;6.03;;;11.70;99.90;;;10.46;92.95;101855.50;4997161;28;20067;-77
2021/06/05 01:17:36;;;;;;;11.27;5.03;;;11.70;99.90;;;10.44;93.01;101857.31;5000072;28;20093;-77
2021/06/05 01:20:24;;;;;;;11.60;5.03;;;11.70;99.90;;;10.42;93.83;101859.13;5041781;28;20075;-77
2021/06/05 01:23:24;;;;;;;9.40;5.30;;;11.70;99.90;;;10.38;93.61;101862.75;4978894;28;20090;-77
2021/06/05 01:26:04;;;;;;;11.68;4.88;;;11.70;99.90;;;10.36;93.99;101863.69;4995312;28;20420;-77
2021/06/05 01:29:09;;;;;;;6.47;4.57;;;11.70;99.90;;;10.39;94.24;101861.00;4994480;28;20065;-77
2021/06/05 01:31:51;;;;;;;8.98;5.00;;;11.70;99.90;;;10.39;94.16;101859.22;4979375;28;20064;-78
2021/06/05 01:34:21;;;;;;;8.48;5.20;;;11.70;99.90;;;10.41;94.65;101846.88;4968263;28;20146;-77
2021/06/05 01:36:52;;;;;;;8.27;5.80;;;11.70;99.90;;;10.49;94.33;101843.16;4977411;28;20067;-77
2021/06/05 01:39:35;;;;;;;13.02;5.75;;;11.80;99.90;;;10.55;94.30;101846.47;4985023;28;20451;-77
2021/06/05 01:42:07;;;;;;;7.45;4.88;;;11.90;99.90;;;10.62;93.26;101841.91;4983160;28;20058;-77
2021/06/05 01:44:38;;;;;;;8.27;5.80;;;12.00;99.90;;;10.76;93.42;101839.72;5005217;28;20081;-77
2021/06/05 01:47:09;;;;;;;10.57;6.15;;;12.00;99.90;;;10.74;93.04;101841.53;4932786;28;21983;-78
2021/06/05 01:49:35;;;;;;;13.52;5.95;;;12.00;99.90;;;10.82;94.11;101838.66;4986142;28;20467;-77
2021/06/05 01:52:11;;;;;;;10.68;5.78;;;12.00;99.90;;;10.76;93.86;101842.38;4988725;28;20068;-77
2021/06/05 01:54:48;;;;;;;7.60;6.03;;;12.10;99.90;;;10.77;94.72;101843.22;4988950;28;20074;-77
2021/06/05 01:57:19;;;;;;;9.73;5.43;;;12.00;99.90;;;10.76;94.83;101838.88;4997067;28;20070;-78
2021/06/05 01:59:46;;;;;;;12.38;5.97;;;12.00;99.90;;;10.86;95.17;101830.66;4998675;28;20056;-78
2021/06/05 02:02:12;;;;;;;16.88;6.20;;;12.10;99.90;;;10.83;94.93;101837.78;4995615;28;20075;-78
2021/06/05 02:04:39;;;;;;;10.35;6.60;;;12.00;99.90;;;10.72;94.53;101835.47;4990597;28;20070;-78
2021/06/05 02:07:07;;;;;;;9.95;6.20;;;11.90;99.90;;;10.63;94.81;101836.59;4990271;28;20977;-78
2021/06/05 02:09:34;;;;;;;9.77;5.80;;;11.90;99.90;;;10.60;95.34;101830.53;4975039;28;20067;-78
2021/06/05 02:12:26;;;;;;;11.45;6.18;;;11.90;99.90;;;10.58;96.21;101824.44;4983998;28;20065;-77
2021/06/05 02:15:03;;;;;;;12.25;6.40;;;11.80;99.90;;;10.55;96.84;101827.19;4970877;28;20066;-78
2021/06/05 02:17:33;;;;;;;11.57;6.93;;;11.80;99.90;;;10.54;97.05;101823.69;5015872;28;20069;-77
2021/06/05 02:20:29;;;;;;;13.20;6.47;;;11.80;99.90;;;10.52;97.07;101824.63;5006749;28;20112;-78
2021/06/05 02:23:01;;;;;;;12.95;6.82;;;11.80;99.90;;;10.56;97.11;101823.63;4980013;28;20089;-78
2021/06/05 02:25:28;;;;;;;14.68;6.35;;;11.80;99.90;;;10.56;98.08;101819.25;5023192;28;20066;-78
2021/06/05 02:27:59;;;;;;;12.77;7.53;;;11.90;99.90;;;10.58;97.70;101822.72;4994097;28;20131;-78
2021/06/05 02:30:27;;;;;;;11.75;6.70;;;11.90;99.90;;;10.60;98.46;101826.13;4979497;28;20068;-78
2021/06/05 02:32:54;;;;;;;11.50;7.47;;;11.90;99.90;;;10.65;99.13;101823.38;4975390;28;20540;-77
2021/06/05 02:35:31;;;;;;;14.85;7.75;;;12.00;99.90;;;10.85;100.00;101817.50;4976102;28;20087;-78
2021/06/05 02:37:57;;;;;;;13.50;8.13;;;12.10;99.90;;;10.91;99.15;101819.09;4960789;28;20132;-78
2021/06/05 02:40:28;;;;;;;16.52;8.25;;;12.20;99.90;;;11.08;98.62;101830.84;4978273;28;20067;-78
2021/06/05 02:43:01;;;;;;;16.90;8.57;;;12.40;99.90;;;11.41;99.23;101821.91;4970899;28;20076;-78
2021/06/05 02:45:55;;;;;;;12.40;8.32;;;12.50;99.90;;;11.43;99.23;101817.47;4984205;28;20075;-78
2021/06/05 02:48:22;;;;;;;17.58;8.80;;;12.60;99.90;;;11.41;99.05;101821.91;5003406;28;20491;-77
2021/06/05 02:50:53;;;;;;;13.18;7.80;;;12.70;99.90;;;11.62;98.81;101831.75;4987942;28;20546;-78
2021/06/05 02:53:20;;;;;;;11.32;7.93;;;12.80;99.90;;;11.62;99.01;101831.75;4973542;28;20062;-78
2021/06/05 02:55:48;;;;;;;12.73;8.05;;;12.80;99.90;;;11.57;98.83;101835.47;4987834;28;20086;-78
2021/06/05 02:58:14;;;;;;;13.43;8.05;;;12.70;99.90;;;11.46;98.85;101834.03;4989946;28;20064;-77
2021/06/05 03:00:45;;;;;;;12.65;8.07;;;12.70;99.90;;;11.45;98.92;101827.03;4979659;28;20066;-78
2021/06/05 03:03:14;;;;;;;11.77;8.15;;;12.70;99.90;;;11.45;98.28;101829.69;4978452;28;20588;-78
2021/06/05 03:05:41;;;;;;;11.80;7.80;;;12.60;99.90;;;11.33;97.74;101835.34;4972432;28;20564;-78
2021/06/05 03:08:24;;;;;;;17.00;7.40;;;12.50;99.90;;;11.20;96.61;101836.66;4996950;28;20561;-78
2021/06/05 03:10:52;;;;;;;15.82;7.03;;;12.40;99.90;;;10.99;95.59;101832.91;4978818;28;20078;-78
2021/06/05 03:13:19;;;;;;;12.10;6.38;;;12.30;99.90;;;10.90;96.13;101834.03;4977946;28;20070;-78
2021/06/05 03:15:47;;;;;;;11.43;6.57;;;12.20;99.90;;;10.82;96.33;101834.28;4986113;28;20542;-78
2021/06/05 03:18:16;;;;;;;10.23;6.75;;;12.20;99.90;;;10.67;97.31;101832.09;4955556;28;20075;-78
2021/06/05 03:20:46;;;;;;;15.07;7.10;;;12.10;99.90;;;10.68;98.88;101829.41;4997745;28;20547;-77
2021/06/05 03:23:16;;;;;;;15.90;7.80;;;12.10;99.90;;;10.77;99.86;101828.28;4973141;28;20071;-78
2021/06/05 03:25:42;;;;;;;10.43;7.55;;;12.10;99.90;;;10.77;100.00;101825.63;5002973;28;20158;-78
2021/06/05 03:28:11;;;;;;;13.13;7.57;;;12.20;99.90;;;10.83;99.61;101817.56;4988919;28;20060;-78
2021/06/05 03:30:38;;;;;;;15.07;7.75;;;12.30;99.90;;;10.93;99.64;101818.16;4971174;28;20062;-78
2021/06/05 03:33:04;;;;;;;12.63;8.07;;;12.40;99.90;;;11.09;100.00;101818.53;4977071;28;20056;-78
2021/06/05 03:35:31;;;;;;;11.35;7.72;;;12.50;99.90;;;11.29;100.00;101824.06;4990453;28;20080;-78
2021/06/05 03:37:57;;;;;;;16.13;8.57;;;12.70;99.90;;;11.37;100.00;101820.28;4995067;28;20099;-78
2021/06/05 03:40:30;;;;;;;12.68;8.45;;;12.90;99.90;;;11.69;100.00;101817.44;4977875;28;20543;-78
2021/06/05 03:42:57;;;;;;;13.23;8.38;;;13.40;99.90;;;12.21;99.81;101811.28;4996899;28;20154;-78
2021/06/05 03:45:23;;;;;;;12.55;8.35;;;14.20;99.90;;;12.95;97.12;101808.50;4987938;28;20451;-78
2021/06/05 03:47:50;;;;;;;11.95;6.93;;;15.10;99.90;;;13.65;92.81;101808.34;4986408;28;20062;-78
2021/06/05 03:50:21;;;;;;;10.18;6.63;;;15.80;99.90;;;14.34;90.15;101804.44;4986944;28;20081;-78
2021/06/05 03:52:47;;;;;;;11.57;6.68;;;16.60;99.90;;;14.98;86.84;101811.22;4999180;28;20045;-78
2021/06/05 03:55:14;;;;;;;8.43;5.85;;;17.20;99.90;;;15.47;84.96;101808.81;4977662;28;20147;-78
2021/06/05 03:57:40;;;;;;;8.13;5.75;;;17.80;99.90;;;15.93;82.37;101813.63;4962227;28;20434;-78
2021/06/05 04:00:15;;;;;;;9.25;5.50;;;18.20;99.90;;;16.36;80.59;101814.88;4986949;28;20093;-78
2021/06/05 04:02:40;;;;;;;14.13;6.03;;;18.40;99.90;;;15.93;81.25;101819.78;4988936;28;20037;-78
2021/06/05 04:05:09;;;;;;;10.10;5.10;;;18.40;99.90;;;16.39;80.55;101819.16;5002086;28;20037;-78
2021/06/05 04:07:37;;;;;;;11.50;5.05;;;18.90;99.90;;;16.91;78.36;101816.34;4987877;28;20052;-79
2021/06/05 04:10:06;;;;;;;7.88;4.90;;;19.50;99.90;;;16.83;77.66;101823.03;4972839;28;21658;-78
2021/06/05 04:12:32;;;;;;;10.40;4.90;;;19.70;99.90;;;16.85;77.29;101815.84;5016172;28;20231;-78
2021/06/05 04:14:58;;;;;;;8.65;4.88;;;19.40;99.90;;;16.84;77.68;101822.09;4996618;28;22368;-78
2021/06/05 04:17:24;;;;;;;6.60;4.90;;;19.60;99.90;;;17.29;76.73;101821.28;4979221;28;20473;-78
2021/06/05 04:19:50;;;;;;;9.00;4.38;;;20.20;99.90;;;17.87;74.57;101822.38;4980115;28;20025;-79
2021/06/05 04:22:18;;;;;;;7.68;4.90;;;20.50;99.90;;;18.16;72.78;101822.41;4996220;28;20349;-78
2021/06/05 04:24:44;;;;;;;7.30;4.47;;;20.60;99.90;;;18.32;72.76;101822.34;4998955;28;20037;-79
2021/06/05 04:27:10;;;;;;;8.20;4.75;;;20.70;99.90;;;18.29;73.06;101828.69;4976711;28;20426;-78
2021/06/05 04:29:37;;;;;;;8.65;4.55;;;21.00;99.90;;;19.05;70.12;101833.72;4979431;28;20034;-79
2021/06/05 04:32:06;;;;;;;8.68;4.63;;;21.30;99.90;;;19.42;69.27;101828.63;4945970;28;20037;-76
2021/06/05 04:34:33;;;;;;;7.60;5.05;;;21.60;99.90;;;19.60;68.24;101823.84;4976093;28;20208;-76
2021/06/05 04:36:59;;;;;;;10.07;4.72;;;21.10;99.90;;;18.20;73.15;101830.13;4984418;28;20018;-76
2021/06/05 04:39:25;;;;;;;5.85;4.28;;;20.60;99.90;;;18.60;72.60;101827.66;4953837;28;21502;-76
2021/06/05 04:41:52;;;;;;;9.70;5.13;;;20.80;99.90;;;19.11;71.10;101826.25;5000007;28;20523;-76
2021/06/05 04:44:18;;;;;;;6.93;4.75;;;21.60;99.90;;;19.87;68.20;101828.34;4985417;28;20107;-76
2021/06/05 04:46:44;;;;;;;8.43;4.47;;;22.40;99.90;;;19.96;68.08;101830.38;4979383;28;20043;-76
2021/06/05 04:49:10;;;;;;;5.80;3.92;;;23.10;99.90;;;20.62;65.24;101825.75;4951509;28;20034;-77
2021/06/05 04:51:40;;;;;;;8.93;4.65;;;23.00;99.90;;;21.12;64.09;101836.41;4993955;28;20075;-76
2021/06/05 04:54:07;;;;;;;8.63;4.32;;;23.70;99.90;;;21.40;62.41;101829.00;4994717;28;20521;-77
2021/06/05 04:56:36;;;;;;;6.80;4.10;;;24.10;99.90;;;22.17;59.66;101837.44;5014134;28;20698;-76
2021/06/05 04:59:04;;;;;;;8.35;4.53;;;24.60;99.90;;;22.13;59.82;101833.28;4992764;28;20057;-76
2021/06/05 05:01:31;;;;;;;7.03;4.00;;;24.50;99.90;;;22.28;59.39;101836.63;4977817;28;20390;-75
2021/06/05 05:03:58;;;;;;;7.47;4.50;;;24.30;99.90;;;22.23;59.03;101834.31;4989054;28;20050;-76
2021/06/05 05:06:23;;;;;;;7.53;4.25;;;24.20;99.90;;;21.91;59.08;101829.56;4982789;28;20029;-76
2021/06/05 05:08:50;;;;;;;8.43;4.35;;;23.70;99.90;;;21.22;62.83;101828.56;4982284;28;20555;-76
2021/06/05 05:11:16;;;;;;;7.05;4.50;;;23.50;99.90;;;21.58;61.47;101832.19;4987115;28;20104;-76
2021/06/05 05:13:43;;;;;;;6.72;3.92;;;24.20;99.90;;;22.02;59.74;101831.44;5001021;28;20025;-76
2021/06/05 05:16:10;;;;;;;9.07;4.45;;;24.40;99.90;;;22.35;58.68;101820.88;4978375;28;20037;-75
2021/06/05 05:18:38;;;;;;;11.23;4.25;;;24.50;99.90;;;22.64;57.69;101827.47;4988188;28;20124;-75
2021/06/05 05:21:06;;;;;;;6.35;4.70;;;25.00;99.90;;;22.80;58.10;101834.28;4993693;28;20389;-76
2021/06/05 05:23:33;;;;;;;12.52;4.57;;;24.90;99.90;;;22.41;58.76;101831.13;5005556;28;20445;-76
2021/06/05 05:26:03;;;;;;;11.10;4.38;;;24.50;99.90;;;22.10;57.77;101838.88;4964413;28;20481;-76
2021/06/05 05:28:31;;;;;;;9.18;4.72;;;23.70;99.90;;;21.39;61.80;101830.00;5004038;28;20156;-76
2021/06/05 05:31:00;;;;;;;6.57;4.03;;;23.90;99.90;;;21.63;60.34;101840.72;5005168;28;20034;-75
2021/06/05 05:33:27;;;;;;;7.80;4.10;;;24.60;99.90;;;22.96;57.71;101832.06;4994752;28;20025;-76
2021/06/05 05:35:55;;;;;;;5.80;3.97;;;24.40;99.90;;;22.69;55.21;101833.31;4964263;28;20125;-76
2021/06/05 05:38:24;;;;;;;6.68;4.50;;;24.50;99.90;;;22.79;56.93;101837.97;4964258;28;20532;-75
2021/06/05 05:40:51;;;;;;;7.13;4.18;;;25.00;99.90;;;22.77;55.29;101837.22;4983503;28;20036;-75
2021/06/05 05:43:18;;;;;;;7.10;4.32;;;25.10;99.90;;;23.15;54.89;101842.16;4979129;28;20036;-76
2021/06/05 05:45:44;;;;;;;10.40;4.30;;;25.10;99.90;;;23.15;55.01;101834.09;4981168;28;20084;-76
2021/06/05 05:48:14;;;;;;;10.00;4.43;;;25.90;99.90;;;24.56;51.87;101832.00;4961824;28;20026;-75
2021/06/05 05:50:43;;;;;;;4.90;4.18;;;26.60;99.90;;;24.30;53.24;101843.19;4995801;28;20029;-76
2021/06/05 05:53:09;;;;;;;7.57;4.25;;;27.00;99.10;;;25.38;48.59;101831.78;4980389;28;20021;-75
2021/06/05 05:55:35;;;;;;;7.47;4.30;;;27.90;96.80;;;25.73;48.70;101840.28;4968859;28;20037;-77
2021/06/05 05:58:13;;;;;;;8.13;4.20;;;26.70;96.60;;;24.40;50.94;101845.06;4992188;28;20045;-76
2021/06/05 06:00:42;;;;;;;6.95;4.07;;;26.90;97.80;;;24.87;48.77;101842.72;4979886;28;20497;-76
2021/06/05 06:03:09;;;;;;;6.68;4.35;;;27.10;97.00;;;24.89;49.38;101846.16;4989805;28;20080;-76
2021/06/05 06:05:36;;;;;;;8.48;4.40;;;27.30;96.10;;;24.11;50.35;101854.72;4996272;28;20038;-76
2021/06/05 06:08:06;;;;;;;6.47;4.22;;;27.20;96.80;;;25.69;48.27;101852.34;4971171;28;20025;-76
2021/06/05 06:10:33;;;;;;;5.47;3.95;;;27.40;95.00;;;25.52;47.97;101853.91;4970687;28;20029;-76
2021/06/05 06:12:59;;;;;;;11.95;4.72;;;27.50;94.70;;;25.58;46.24;101858.72;4976054;28;20572;-76
2021/06/05 06:15:29;;;;;;;6.40;4.57;;;27.30;94.60;;;25.78;45.81;101851.47;4978821;28;20034;-76
2021/06/05 06:17:57;;;;;;;5.80;3.85;;;27.10;95.90;;;25.16;49.11;101853.56;4979143;28;20449;-76
2021/06/05 06:20:32;;;;;;;5.63;4.18;;;27.70;95.00;;;25.59;47.70;101849.63;4985966;28;20385;-76
2021/06/05 06:23:01;;;;;;;6.07;4.20;;;27.70;93.80;;;25.96;45.93;101855.19;4957828;28;20388;-78
2021/06/05 06:25:34;;;;;;;6.00;4.20;;;27.40;94.30;;;24.97;47.98;101854.38;4995516;28;21928;-78
2021/06/05 06:28:00;;;;;;;7.50;4.50;;;27.30;95.20;;;25.55;46.79;101849.09;4980148;28;20412;-78
2021/06/05 06:30:37;;;;;;;5.28;4.07;;;28.00;94.50;;;26.10;46.08;101853.88;4993215;28;22505;-76
2021/06/05 06:33:07;;;;;;;7.03;4.25;;;28.30;94.30;;;26.37;46.41;101846.81;4988417;28;20050;-76
2021/06/05 06:35:35;;;;;;;12.00;4.15;;;27.70;92.80;;;24.92;47.74;101844.03;4989582;28;20041;-76
2021/06/05 06:38:05;;;;;;;5.72;4.35;;;26.40;94.70;;;24.38;49.13;101852.44;4980227;28;20564;-76
2021/06/05 06:40:35;;;;;;;7.10;4.43;;;26.20;95.20;;;24.42;48.53;101852.03;4970756;28;20048;-76
2021/06/05 06:43:05;;;;;;;6.28;4.32;;;25.90;96.00;;;24.52;48.64;101844.03;4987346;28;20481;-76
2021/06/05 06:45:33;;;;;;;6.63;4.43;;;26.10;95.70;;;24.46;48.99;101841.84;4988363;28;20621;-75
2021/06/05 06:47:59;;;;;;;7.93;4.28;;;26.30;95.70;;;25.37;47.66;101838.13;4998140;28;20032;-76
2021/06/05 06:50:29;;;;;;;8.50;4.85;;;27.10;95.50;;;25.85;46.82;101833.69;4963536;28;20041;-76
2021/06/05 06:52:59;;;;;;;9.18;4.30;;;27.60;94.10;;;27.07;44.23;101835.53;5004065;28;20029;-76
2021/06/05 06:55:26;;;;;;;7.10;4.53;;;27.20;94.00;;;25.38;46.05;101836.31;4995941;28;20038;-76
2021/06/05 06:57:53;;;;;;;9.05;4.30;;;26.50;94.40;;;24.75;48.09;101844.66;4969441;28;20417;-76
2021/06/05 07:00:29;;;;;;;7.55;4.53;;;25.70;96.80;;;24.48;49.38;101845.25;4994890;28;20099;-75
2021/06/05 07:02:55;;;;;;;7.78;3.95;;;26.50;95.90;;;25.65;45.96;101843.69;4987365;28;20051;-76
2021/06/05 07:05:22;;;;;;;10.63;4.40;;;26.30;94.40;;;25.69;45.82;101844.25;4989002;28;20044;-76
2021/06/05 07:07:48;;;;;;;9.70;4.68;;;26.20;94.80;;;25.30;46.55;101838.88;4985648;28;20104;-76
2021/06/05 07:10:19;;;;;;;7.53;4.75;;;25.90;95.60;;;25.03;48.02;101837.66;4968632;28;20417;-76
2021/06/05 07:12:45;;;;;;;10.23;4.25;;;26.20;95.00;;;24.77;47.11;101838.19;5002384;28;20389;-75
2021/06/05 07:15:13;;;;;;;6.22;4.00;;;26.20;98.10;;;26.01;46.40;101833.16;4978890;28;20540;-78
2021/06/05 07:17:38;;;;;;;8.10;4.32;;;26.40;94.30;;;24.91;45.45;101845.00;4993256;28;20041;-74
2021/06/05 07:20:06;;;;;;;11.93;4.53;;;26.20;94.10;;;25.16;44.40;101840.94;5001722;28;20045;-74
2021/06/05 07:22:32;;;;;;;10.05;4.88;;;25.70;94.70;;;24.14;47.77;101850.88;4984033;28;20029;-74
2021/06/05 07:24:58;;;;;;;5.78;4.07;;;25.00;96.20;;;24.91;46.91;101838.78;4994802;28;20021;-74
2021/06/05 07:27:27;;;;;;;5.22;4.22;;;26.10;95.40;;;25.47;45.22;101840.84;4940045;28;20056;-78
2021/06/05 07:29:53;;;;;;;8.13;4.00;;;25.70;94.20;;;24.55;46.00;101849.97;5004342;28;20033;-74
2021/06/05 07:32:19;;;;;;;6.88;4.25;;;25.00;94.40;;;23.42;48.16;101844.41;5001052;28;20037;-73
2021/06/05 07:34:44;;;;;;;6.60;3.60;;;25.00;95.20;;;24.47;46.87;101846.22;5003539;28;20114;-73
2021/06/05 07:37:12;;;;;;;8.68;4.13;;;25.00;95.10;;;24.43;46.23;101842.09;4976345;28;20037;-75
2021/06/05 07:39:39;;;;;;;8.05;4.25;;;25.40;94.20;;;24.79;44.94;101840.72;4995118;28;20033;-77
2021/06/05 07:42:07;;;;;;;6.18;3.85;;;25.60;96.20;;;25.57;44.57;101832.75;5002527;28;20022;-77
2021/06/05 07:44:34;;;;;;;7.28;4.40;;;26.30;94.40;;;25.87;43.48;101837.09;5002587;28;20033;-77
2021/06/05 07:47:02;;;;;;;6.82;4.13;;;26.60;94.20;;;26.00;43.04;101839.53;5002516;28;20155;-75
2021/06/05 07:49:33;;;;;;;7.45;4.13;;;26.90;93.10;;;26.61;41.24;101830.13;4984755;28;20045;-75
2021/06/05 07:52:02;;;;;;;6.30;4.07;;;27.00;92.70;;;26.21;42.79;101833.09;4979733;28;20083;-75
2021/06/05 07:54:28;;;;;;;7.32;3.95;;;25.90;93.70;;;25.20;44.90;101843.38;4990593;28;20486;-76
2021/06/05 07:56:54;;;;;;;5.45;4.35;;;26.20;92.80;;;24.69;44.29;101835.31;4973224;28;20048;-77
2021/06/05 07:59:24;;;;;;;8.07;4.25;;;25.80;93.40;;;25.14;44.76;101825.88;4993297;28;20489;-77
2021/06/05 08:01:52;;;;;;;6.13;4.10;;;26.20;92.90;;;25.21;44.09;101819.00;4993360;28;20096;-77
2021/06/05 08:04:19;;;;;;;5.65;4.53;;;26.10;93.20;;;24.88;44.02;101828.25;4976962;28;20049;-77
2021/06/05 08:06:46;;;;;;;5.72;3.75;;;26.10;93.90;;;25.18;44.55;101822.81;4968219;28;20022;-77
2021/06/05 08:09:14;;;;;;;4.65;3.50;;;26.70;93.60;;;26.14;42.73;101819.34;4986135;28;20017;-78
2021/06/05 08:11:43;;;;;;;8.73;4.00;;;26.70;91.60;;;25.55;42.09;101816.72;4966221;28;20324;-78
2021/06/05 08:14:09;;;;;;;7.20;4.07;;;26.80;92.10;;;25.73;41.79;101814.16;5002087;28;20040;-77
2021/06/05 08:16:37;;;;;;;7.18;3.88;;;26.80;91.10;;;25.36;42.11;101816.75;4977926;28;20040;-77
2021/06/05 08:19:11;;;;;;;6.93;3.78;;;26.70;91.60;;;25.16;42.11;101813.13;4977286;28;20025;-77
2021/06/05 08:21:42;;;;;;;7.03;4.00;;;26.60;92.20;;;25.69;42.89;101815.44;4997082;28;20052;-77
2021/06/05 08:24:13;;;;;;;7.03;3.22;;;26.20;91.50;;;24.84;44.87;101811.53;5002507;28;20511;-77
2021/06/05 08:26:40;;;;;;;11.20;4.10;;;26.70;92.00;;;25.78;41.14;101805.63;4992815;28;20034;-77
2021/06/05 08:29:07;;;;;;;7.03;3.38;;;26.60;90.20;;;24.96;41.11;101814.97;4994197;28;20021;-77
2021/06/05 08:31:33;;;;;;;4.57;3.30;;;26.20;90.70;;;24.96;39.39;101812.25;4992340;28;20103;-77
2021/06/05 08:33:59;;;;;;;6.68;4.00;;;26.10;90.40;;;24.75;43.19;101817.72;4989724;28;20045;-77
2021/06/05 08:36:28;;;;;;;5.95;3.20;;;26.20;89.90;;;25.28;39.18;101808.50;4974663;28;20127;-77
2021/06/05 08:38:55;;;;;;;5.35;3.20;;;26.20;90.80;;;25.17;41.40;101804.06;4966052;28;20040;-77
2021/06/05 08:41:51;;;;;;;5.68;3.58;;;26.50;88.40;;;26.13;38.49;101799.59;4973910;28;20429;-77
2021/06/05 08:44:40;;;;;;;4.30;3.00;;;26.40;86.90;;;25.05;39.60;101803.31;4961860;28;20033;-77
2021/06/05 08:47:18;;;;;;;4.60;2.75;;;26.00;87.90;;;24.64;38.29;101810.63;4973796;28;20121;-77
2021/06/05 08:49:47;;;;;;;3.90;2.67;;;25.80;88.00;;;24.80;38.07;101801.19;5019242;28;20579;-77
2021/06/05 08:52:30;;;;;;;6.43;2.90;;;25.80;84.60;;;24.97;36.55;101793.28;5004615;28;20105;-77
2021/06/05 08:55:23;;;;;;;4.30;3.10;;;25.90;86.10;;;24.58;38.71;101804.94;5011891;28;21890;-77
2021/06/05 08:58:00;;;;;;;9.65;3.50;;;25.40;88.90;;;24.52;39.75;101800.97;4963153;28;20138;-77
2021/06/05 09:00:38;;;;;;;4.68;3.00;;;25.40;88.00;;;24.52;38.90;101811.72;4993747;28;20033;-77
2021/06/05 09:03:16;;;;;;;5.10;3.00;;;25.40;87.40;;;24.55;38.29;101808.75;4983172;28;20021;-77
2021/06/05 09:06:22;;;;;;;6.15;3.22;;;25.50;88.20;;;25.06;39.31;101805.06;4994504;28;20040;-77
2021/06/05 09:09:03;;;;;;;4.97;3.05;;;25.70;87.30;;;24.64;37.29;101801.69;4953233;28;20018;-77
2021/06/05 09:11:44;;;;;;;6.93;3.58;;;25.60;86.60;;;24.61;38.70;101810.91;4933809;28;20049;-77
2021/06/05 09:14:29;;;;;;;3.97;2.47;;;25.80;87.60;;;24.65;38.53;101806.94;4955909;28;20029;-78
2021/06/05 09:17:27;;;;;;;8.23;3.47;;;25.50;89.70;;;25.03;39.61;101808.00;4950180;28;20049;-77
2021/06/05 09:20:33;;;;;;;7.57;2.97;;;25.90;88.70;;;25.29;37.91;101805.69;5024123;28;20044;-77
2021/06/05 09:23:38;;;;;;;7.93;3.00;;;25.70;87.20;;;24.13;37.96;101814.22;4953078;28;20059;-77
2021/06/05 09:26:32;;;;;;;4.28;2.63;;;25.00;86.90;;;23.83;37.86;101815.03;4967984;28;20026;-78
2021/06/05 09:29:30;;;;;;;5.75;3.15;;;24.70;87.10;;;23.72;38.63;101806.00;4956933;28;20114;-77
2021/06/05 09:32:28;;;;;;;5.03;2.70;;;24.70;85.50;;;23.75;39.25;101815.66;4913862;28;20481;-77
2021/06/05 09:35:05;;;;;;;4.32;2.42;;;24.60;86.20;;;23.90;38.69;101816.22;4957457;28;20052;-77
2021/06/05 09:37:57;;;;;;;4.60;2.70;;;24.80;87.80;;;24.40;36.11;101805.53;4974393;28;20068;-77
2021/06/05 09:40:47;;;;;;;4.68;3.17;;;25.00;84.10;;;24.11;38.39;101819.72;4923392;28;20157;-77
2021/06/05 09:43:45;;;;;;;4.30;3.17;;;25.30;84.20;;;24.71;38.05;101801.03;4945358;28;20116;-77
2021/06/05 09:47:13;;;;;;;4.80;3.13;;;25.50;85.30;;;24.09;37.17;101819.00;4951203;28;20489;-77
2021/06/05 09:50:42;;;;;;;5.72;3.17;;;25.00;85.70;;;24.32;37.36;101817.00;4954121;28;20045;-77
2021/06/05 09:54:19;;;;;;;6.18;3.15;;;25.20;82.80;;;24.59;35.60;101817.41;4957558;28;20308;-77
2021/06/05 09:57:55;;;;;;;5.40;3.05;;;25.30;83.70;;;24.72;36.06;101813.47;4976983;28;20044;-77
2021/06/05 10:01:24;;;;;;;4.65;2.95;;;25.30;83.20;;;24.36;37.22;101821.13;4950297;28;20508;-77
2021/06/05 10:04:40;;;;;;;7.82;2.90;;;25.40;82.40;;;24.18;36.13;101820.03;4957043;28;20033;-77
2021/06/05 10:07:47;;;;;;;6.00;3.08;;;25.00;83.30;;;24.18;37.92;101825.44;4946217;28;20048;-76
2021/06/05 10:10:51;;;;;;;7.22;3.15;;;25.40;83.10;;;25.05;36.78;101814.09;4960730;28;20083;-77
2021/06/05 10:13:49;;;;;;;5.10;2.92;;;25.40;83.60;;;24.80;36.82;101820.03;4937497;28;20429;-76
2021/06/05 10:16:48;;;;;;;4.57;2.80;;;25.70;81.40;;;25.14;35.43;101816.00;4953482;28;20116;-76
2021/06/05 10:19:56;;;;;;;5.05;2.45;;;25.50;80.40;;;24.61;34.57;101828.91;4954906;28;20072;-76
2021/06/05 10:22:44;;;;;;;4.40;2.70;;;25.50;80.90;;;24.88;34.81;101829.13;4937832;28;20029;-76
2021/06/05 10:25:53;;;;;;;5.05;3.05;;;25.70;80.70;;;25.07;33.75;101824.75;4926810;28;20034;-76
2021/06/05 10:28:59;;;;;;;6.30;2.40;;;26.00;79.90;;;25.17;34.45;101831.84;4954674;28;20478;-76
2021/06/05 10:31:48;;;;;;;4.22;2.78;;;25.80;78.80;;;24.91;34.00;101823.47;4962912;28;20034;-76
2021/06/05 10:35:19;;;;;;;2.47;2.15;;;26.00;77.10;;;25.27;32.59;101820.25;4941556;28;20116;-76
2021/06/05 10:38:41;;;;;;;3.72;2.10;;;25.60;78.60;;;24.82;34.18;101824.28;4969641;28;20041;-76
2021/06/05 10:45:07;;;;;;;4.00;2.50;;;25.50;79.60;;;25.12;34.61;101815.28;4958347;28;20033;-76